sensor_id;sensor_type;location;lat;lon;timestamp;pressure;altitude;pressure_sealevel;temperature;humidity
39301;BME280;25019;42.626;23.380;2023-12-20T00:01:05;94731.03;;;-1.53;100.00
39301;BME280;25019;42.626;23.380;2023-12-20T00:03:31;94823.63;;;-0.92;100.00
39301;BME280;25019;42.626;23.380;2023-12-20T00:05:57;94834.06;;;-0.84;100.00
39301;BME280;25019;42.626;23.380;2023-12-20T00:08:23;94829.81;;;-0.85;100.00
39301;BME280;25019;42.626;23.380;2023-12-20T00:10:48;94797.09;;;-1.04;100.00
39301;BME280;25019;42.626;23.380;2023-12-20T00:13:14;94781.78;;;-1.15;100.00
39301;BME280;25019;42.626;23.380;2023-12-20T00:15:40;94725.69;;;-1.51;100.00
39301;BME280;25019;42.626;23.380;2023-12-20T00:18:06;94826.25;;;-0.92;100.00
39301;BME280;25019;42.626;23.380;2023-12-20T00:20:31;94757.41;;;-1.39;100.00
39301;BME280;25019;42.626;23.380;2023-12-20T00:22:57;94656.06;;;-2.07;100.00
39301;BME280;25019;42.626;23.380;2023-12-20T00:25:24;94637.69;;;-2.14;100.00
39301;BME280;25019;42.626;23.380;2023-12-20T00:27:50;94687.28;;;-1.82;100.00
39301;BME280;25019;42.626;23.380;2023-12-20T00:30:16;94816.47;;;-0.98;100.00
39301;BME280;25019;42.626;23.380;2023-12-20T00:32:42;94712.81;;;-1.61;100.00
39301;BME280;25019;42.626;23.380;2023-12-20T00:35:14;94670.53;;;-1.88;100.00
39301;BME280;25019;42.626;23.380;2023-12-20T00:37:40;94703.38;;;-1.70;100.00
39301;BME280;25019;42.626;23.380;2023-12-20T00:40:06;94733.31;;;-1.49;100.00
39301;BME280;25019;42.626;23.380;2023-12-20T00:42:33;94733.97;;;-1.39;100.00
39301;BME280;25019;42.626;23.380;2023-12-20T00:44:59;94752.34;;;-1.32;100.00
39301;BME280;25019;42.626;23.380;2023-12-20T00:47:25;94656.69;;;-1.88;100.00
39301;BME280;25019;42.626;23.380;2023-12-20T00:49:51;94649.06;;;-1.98;100.00
39301;BME280;25019;42.626;23.380;2023-12-20T00:52:17;94749.41;;;-1.29;100.00
39301;BME280;25019;42.626;23.380;2023-12-20T00:54:43;94694.44;;;-1.76;100.00
39301;BME280;25019;42.626;23.380;2023-12-20T00:57:09;94623.22;;;-2.16;100.00
39301;BME280;25019;42.626;23.380;2023-12-20T00:59:35;94642.41;;;-2.01;100.00
39301;BME280;25019;42.626;23.380;2023-12-20T01:02:01;94662.56;;;-1.86;100.00
39301;BME280;25019;42.626;23.380;2023-12-20T01:04:26;94669.38;;;-1.85;100.00
39301;BME280;25019;42.626;23.380;2023-12-20T01:06:52;94690.03;;;-1.67;100.00
39301;BME280;25019;42.626;23.380;2023-12-20T01:09:19;94676.38;;;-1.77;100.00
39301;BME280;25019;42.626;23.380;2023-12-20T01:11:45;94631.66;;;-2.14;100.00
39301;BME280;25019;42.626;23.380;2023-12-20T01:14:12;94697.84;;;-1.75;100.00
39301;BME280;25019;42.626;23.380;2023-12-20T01:16:38;94661.09;;;-1.89;100.00
39301;BME280;25019;42.626;23.380;2023-12-20T01:19:03;94755.75;;;-1.24;100.00
39301;BME280;25019;42.626;23.380;2023-12-20T01:21:29;94652.00;;;-1.93;100.00
39301;BME280;25019;42.626;23.380;2023-12-20T01:23:55;94619.44;;;-2.05;100.00
39301;BME280;25019;42.626;23.380;2023-12-20T01:26:21;94583.56;;;-2.27;100.00
39301;BME280;25019;42.626;23.380;2023-12-20T01:28:47;94703.66;;;-1.48;100.00
39301;BME280;25019;42.626;23.380;2023-12-20T01:31:13;94637.34;;;-1.94;100.00
39301;BME280;25019;42.626;23.380;2023-12-20T01:33:38;94744.69;;;-1.26;100.00
39301;BME280;25019;42.626;23.380;2023-12-20T01:36:04;94613.59;;;-1.99;100.00
39301;BME280;25019;42.626;23.380;2023-12-20T01:38:30;94687.25;;;-1.57;100.00
39301;BME280;25019;42.626;23.380;2023-12-20T01:40:56;94677.00;;;-1.59;100.00
39301;BME280;25019;42.626;23.380;2023-12-20T01:43:22;94681.25;;;-1.58;100.00
39301;BME280;25019;42.626;23.380;2023-12-20T01:45:48;94573.63;;;-2.23;100.00
39301;BME280;25019;42.626;23.380;2023-12-20T01:48:15;94714.56;;;-1.28;100.00
39301;BME280;25019;42.626;23.380;2023-12-20T01:50:42;94645.78;;;-1.75;100.00
39301;BME280;25019;42.626;23.380;2023-12-20T01:53:10;94568.41;;;-2.15;100.00
39301;BME280;25019;42.626;23.380;2023-12-20T01:55:39;94510.88;;;-2.53;100.00
39301;BME280;25019;42.626;23.380;2023-12-20T01:58:09;94550.38;;;-2.24;100.00
39301;BME280;25019;42.626;23.380;2023-12-20T02:00:36;94660.22;;;-1.56;100.00
39301;BME280;25019;42.626;23.380;2023-12-20T02:03:03;94645.09;;;-1.61;100.00
39301;BME280;25019;42.626;23.380;2023-12-20T02:05:32;94653.06;;;-1.62;100.00
39301;BME280;25019;42.626;23.380;2023-12-20T02:07:59;94589.69;;;-2.03;100.00
39301;BME280;25019;42.626;23.380;2023-12-20T02:10:25;94538.03;;;-2.31;100.00
39301;BME280;25019;42.626;23.380;2023-12-20T02:12:51;94681.97;;;-1.32;100.00
39301;BME280;25019;42.626;23.380;2023-12-20T02:15:17;94520.94;;;-2.33;100.00
39301;BME280;25019;42.626;23.380;2023-12-20T02:17:43;94673.50;;;-1.34;100.00
39301;BME280;25019;42.626;23.380;2023-12-20T02:20:10;94523.38;;;-2.32;100.00
39301;BME280;25019;42.626;23.380;2023-12-20T02:22:36;94493.50;;;-2.52;100.00
39301;BME280;25019;42.626;23.380;2023-12-20T02:25:02;94626.69;;;-1.59;100.00
39301;BME280;25019;42.626;23.380;2023-12-20T02:27:28;94584.13;;;-1.91;100.00
39301;BME280;25019;42.626;23.380;2023-12-20T02:29:54;94535.38;;;-2.22;100.00
39301;BME280;25019;42.626;23.380;2023-12-20T02:32:21;94602.00;;;-1.80;100.00
39301;BME280;25019;42.626;23.380;2023-12-20T02:34:48;94495.59;;;-2.39;100.00
39301;BME280;25019;42.626;23.380;2023-12-20T02:37:14;94650.41;;;-1.38;100.00
39301;BME280;25019;42.626;23.380;2023-12-20T02:39:40;94654.16;;;-1.40;100.00
39301;BME280;25019;42.626;23.380;2023-12-20T02:42:06;94502.56;;;-2.32;100.00
39301;BME280;25019;42.626;23.380;2023-12-20T02:44:31;94437.28;;;-2.70;100.00
39301;BME280;25019;42.626;23.380;2023-12-20T02:46:57;94577.97;;;-1.99;100.00
39301;BME280;25019;42.626;23.380;2023-12-20T02:49:23;94586.91;;;-1.85;100.00
39301;BME280;25019;42.626;23.380;2023-12-20T02:51:49;94438.13;;;-2.78;100.00
39301;BME280;25019;42.626;23.380;2023-12-20T02:54:16;94527.94;;;-2.26;100.00
39301;BME280;25019;42.626;23.380;2023-12-20T02:56:41;94642.78;;;-1.47;100.00
39301;BME280;25019;42.626;23.380;2023-12-20T02:59:07;94396.09;;;-3.14;100.00
39301;BME280;25019;42.626;23.380;2023-12-20T03:01:34;94572.44;;;-1.96;100.00
39301;BME280;25019;42.626;23.380;2023-12-20T03:04:01;94529.06;;;-2.28;100.00
39301;BME280;25019;42.626;23.380;2023-12-20T03:06:26;94474.66;;;-2.71;100.00
39301;BME280;25019;42.626;23.380;2023-12-20T03:08:52;94526.31;;;-2.27;100.00
39301;BME280;25019;42.626;23.380;2023-12-20T03:11:18;94543.34;;;-2.16;100.00
39301;BME280;25019;42.626;23.380;2023-12-20T03:13:44;94540.59;;;-2.22;100.00
39301;BME280;25019;42.626;23.380;2023-12-20T03:16:11;94516.88;;;-2.44;100.00
39301;BME280;25019;42.626;23.380;2023-12-20T03:18:37;94515.13;;;-2.44;100.00
39301;BME280;25019;42.626;23.380;2023-12-20T03:21:04;94518.19;;;-2.48;100.00
39301;BME280;25019;42.626;23.380;2023-12-20T03:23:30;94638.41;;;-1.63;100.00
39301;BME280;25019;42.626;23.380;2023-12-20T03:25:58;94639.75;;;-1.68;100.00
39301;BME280;25019;42.626;23.380;2023-12-20T03:28:24;94553.78;;;-2.16;100.00
39301;BME280;25019;42.626;23.380;2023-12-20T03:30:50;94465.88;;;-2.78;100.00
39301;BME280;25019;42.626;23.380;2023-12-20T03:33:16;94535.28;;;-2.37;100.00
39301;BME280;25019;42.626;23.380;2023-12-20T03:35:41;94505.69;;;-2.53;100.00
39301;BME280;25019;42.626;23.380;2023-12-20T03:38:07;94547.59;;;-2.31;100.00
39301;BME280;25019;42.626;23.380;2023-12-20T03:40:33;94632.09;;;-1.69;100.00
39301;BME280;25019;42.626;23.380;2023-12-20T03:42:59;94434.56;;;-3.02;100.00
39301;BME280;25019;42.626;23.380;2023-12-20T03:45:24;94506.34;;;-2.43;100.00
39301;BME280;25019;42.626;23.380;2023-12-20T03:47:50;94533.16;;;-2.34;100.00
39301;BME280;25019;42.626;23.380;2023-12-20T03:50:25;94533.78;;;-2.40;100.00
39301;BME280;25019;42.626;23.380;2023-12-20T03:52:51;94568.09;;;-2.20;100.00
39301;BME280;25019;42.626;23.380;2023-12-20T03:55:17;94543.88;;;-2.29;100.00
39301;BME280;25019;42.626;23.380;2023-12-20T03:57:43;94583.34;;;-2.00;100.00
39301;BME280;25019;42.626;23.380;2023-12-20T04:00:10;94575.38;;;-2.07;100.00
39301;BME280;25019;42.626;23.380;2023-12-20T04:02:40;94590.50;;;-1.94;100.00
39301;BME280;25019;42.626;23.380;2023-12-20T04:05:07;94433.09;;;-2.96;100.00
39301;BME280;25019;42.626;23.380;2023-12-20T04:07:33;94480.50;;;-2.69;100.00
39301;BME280;25019;42.626;23.380;2023-12-20T04:10:00;94482.78;;;-2.66;100.00
39301;BME280;25019;42.626;23.380;2023-12-20T04:12:27;94591.66;;;-1.97;100.00
39301;BME280;25019;42.626;23.380;2023-12-20T04:14:53;94598.78;;;-1.90;100.00
39301;BME280;25019;42.626;23.380;2023-12-20T04:17:20;94585.47;;;-1.96;100.00
39301;BME280;25019;42.626;23.380;2023-12-20T04:19:45;94494.63;;;-2.63;100.00
39301;BME280;25019;42.626;23.380;2023-12-20T04:22:11;94522.75;;;-2.59;100.00
39301;BME280;25019;42.626;23.380;2023-12-20T04:24:37;94502.78;;;-2.66;100.00
39301;BME280;25019;42.626;23.380;2023-12-20T04:27:03;94506.00;;;-2.64;100.00
39301;BME280;25019;42.626;23.380;2023-12-20T04:29:29;94474.50;;;-2.86;100.00
39301;BME280;25019;42.626;23.380;2023-12-20T04:31:54;94488.81;;;-2.65;100.00
39301;BME280;25019;42.626;23.380;2023-12-20T04:34:22;94466.72;;;-2.78;100.00
39301;BME280;25019;42.626;23.380;2023-12-20T04:36:48;94410.38;;;-3.19;100.00
39301;BME280;25019;42.626;23.380;2023-12-20T04:39:14;94508.75;;;-2.49;100.00
39301;BME280;25019;42.626;23.380;2023-12-20T04:41:42;94417.34;;;-3.11;100.00
39301;BME280;25019;42.626;23.380;2023-12-20T04:44:08;94465.09;;;-2.79;100.00
39301;BME280;25019;42.626;23.380;2023-12-20T04:46:34;94453.88;;;-2.88;100.00
39301;BME280;25019;42.626;23.380;2023-12-20T04:49:00;94346.75;;;-3.48;100.00
39301;BME280;25019;42.626;23.380;2023-12-20T04:51:25;94564.31;;;-2.09;100.00
39301;BME280;25019;42.626;23.380;2023-12-20T04:53:51;94470.63;;;-2.65;100.00
39301;BME280;25019;42.626;23.380;2023-12-20T04:56:17;94563.03;;;-2.13;100.00
39301;BME280;25019;42.626;23.380;2023-12-20T04:58:43;94562.03;;;-2.12;100.00
39301;BME280;25019;42.626;23.380;2023-12-20T05:01:09;94567.09;;;-2.11;100.00
39301;BME280;25019;42.626;23.380;2023-12-20T05:03:35;94558.66;;;-2.13;100.00
39301;BME280;25019;42.626;23.380;2023-12-20T05:06:01;94446.75;;;-2.86;100.00
39301;BME280;25019;42.626;23.380;2023-12-20T05:08:27;94403.56;;;-3.11;100.00
39301;BME280;25019;42.626;23.380;2023-12-20T05:10:54;94401.59;;;-3.18;100.00
39301;BME280;25019;42.626;23.380;2023-12-20T05:13:20;94402.25;;;-3.16;100.00
39301;BME280;25019;42.626;23.380;2023-12-20T05:15:46;94428.88;;;-2.97;100.00
39301;BME280;25019;42.626;23.380;2023-12-20T05:18:12;94556.22;;;-2.31;100.00
39301;BME280;25019;42.626;23.380;2023-12-20T05:20:38;94434.72;;;-3.28;100.00
39301;BME280;25019;42.626;23.380;2023-12-20T05:23:05;94475.31;;;-3.02;100.00
39301;BME280;25019;42.626;23.380;2023-12-20T05:25:31;94551.03;;;-2.64;100.00
39301;BME280;25019;42.626;23.380;2023-12-20T05:27:57;94539.31;;;-2.93;100.00
39301;BME280;25019;42.626;23.380;2023-12-20T05:30:23;94467.94;;;-3.65;100.00
39301;BME280;25019;42.626;23.380;2023-12-20T05:32:49;94443.25;;;-3.77;100.00
39301;BME280;25019;42.626;23.380;2023-12-20T05:35:15;94447.63;;;-3.78;100.00
39301;BME280;25019;42.626;23.380;2023-12-20T05:37:41;94432.34;;;-3.97;100.00
39301;BME280;25019;42.626;23.380;2023-12-20T05:40:07;94391.28;;;-4.10;100.00
39301;BME280;25019;42.626;23.380;2023-12-20T05:42:37;94363.50;;;-4.26;100.00
39301;BME280;25019;42.626;23.380;2023-12-20T05:45:05;94533.28;;;-3.18;100.00
39301;BME280;25019;42.626;23.380;2023-12-20T05:47:31;94488.41;;;-3.45;100.00
39301;BME280;25019;42.626;23.380;2023-12-20T05:49:57;94353.94;;;-4.34;100.00
39301;BME280;25019;42.626;23.380;2023-12-20T05:52:23;94485.34;;;-3.49;100.00
39301;BME280;25019;42.626;23.380;2023-12-20T05:54:49;94398.41;;;-4.12;100.00
39301;BME280;25019;42.626;23.380;2023-12-20T05:57:14;94348.88;;;-4.36;100.00
39301;BME280;25019;42.626;23.380;2023-12-20T05:59:40;94527.13;;;-3.25;100.00
39301;BME280;25019;42.626;23.380;2023-12-20T06:02:06;94392.22;;;-4.19;100.00
39301;BME280;25019;42.626;23.380;2023-12-20T06:04:32;94476.25;;;-3.53;100.00
39301;BME280;25019;42.626;23.380;2023-12-20T06:06:58;94509.91;;;-3.26;100.00
39301;BME280;25019;42.626;23.380;2023-12-20T06:09:26;94506.63;;;-3.37;100.00
39301;BME280;25019;42.626;23.380;2023-12-20T06:11:52;94486.94;;;-3.64;100.00
39301;BME280;25019;42.626;23.380;2023-12-20T06:14:18;94367.41;;;-4.65;100.00
39301;BME280;25019;42.626;23.380;2023-12-20T06:16:45;94417.97;;;-4.18;100.00
39301;BME280;25019;42.626;23.380;2023-12-20T06:19:11;94522.50;;;-3.56;100.00
39301;BME280;25019;42.626;23.380;2023-12-20T06:21:37;94369.41;;;-4.51;100.00
39301;BME280;25019;42.626;23.380;2023-12-20T06:24:03;94462.50;;;-3.88;100.00
39301;BME280;25019;42.626;23.380;2023-12-20T06:26:29;94509.19;;;-3.53;100.00
39301;BME280;25019;42.626;23.380;2023-12-20T06:28:54;94524.31;;;-3.32;100.00
39301;BME280;25019;42.626;23.380;2023-12-20T06:31:21;94505.16;;;-3.39;100.00
39301;BME280;25019;42.626;23.380;2023-12-20T06:33:46;94414.81;;;-3.95;100.00
39301;BME280;25019;42.626;23.380;2023-12-20T06:36:13;94525.31;;;-3.25;100.00
39301;BME280;25019;42.626;23.380;2023-12-20T06:38:39;94400.06;;;-3.95;100.00
39301;BME280;25019;42.626;23.380;2023-12-20T06:41:05;94529.41;;;-3.06;100.00
39301;BME280;25019;42.626;23.380;2023-12-20T06:43:31;94444.28;;;-3.45;100.00
39301;BME280;25019;42.626;23.380;2023-12-20T06:46:03;94417.16;;;-3.51;100.00
39301;BME280;25019;42.626;23.380;2023-12-20T06:48:28;94380.31;;;-3.63;100.00
39301;BME280;25019;42.626;23.380;2023-12-20T06:50:54;94380.69;;;-3.49;100.00
39301;BME280;25019;42.626;23.380;2023-12-20T06:53:20;94482.63;;;-2.73;100.00
39301;BME280;25019;42.626;23.380;2023-12-20T06:55:46;94412.97;;;-3.27;100.00
39301;BME280;25019;42.626;23.380;2023-12-20T06:58:12;94344.94;;;-3.47;100.00
39301;BME280;25019;42.626;23.380;2023-12-20T07:00:38;94401.75;;;-3.11;100.00
39301;BME280;25019;42.626;23.380;2023-12-20T07:03:04;94301.00;;;-3.65;100.00
39301;BME280;25019;42.626;23.380;2023-12-20T07:05:29;94326.75;;;-3.39;100.00
39301;BME280;25019;42.626;23.380;2023-12-20T07:07:58;94278.09;;;-3.62;100.00
39301;BME280;25019;42.626;23.380;2023-12-20T07:10:24;94445.34;;;-2.40;100.00
39301;BME280;25019;42.626;23.380;2023-12-20T07:12:52;94401.06;;;-2.80;100.00
39301;BME280;25019;42.626;23.380;2023-12-20T07:15:21;94357.06;;;-2.98;100.00
39301;BME280;25019;42.626;23.380;2023-12-20T07:17:47;94285.41;;;-3.40;100.00
39301;BME280;25019;42.626;23.380;2023-12-20T07:20:13;94317.31;;;-3.07;100.00
39301;BME280;25019;42.626;23.380;2023-12-20T07:22:39;94200.41;;;-3.71;100.00
39301;BME280;25019;42.626;23.380;2023-12-20T07:25:05;94467.19;;;-2.01;100.00
39301;BME280;25019;42.626;23.380;2023-12-20T07:27:31;94315.94;;;-2.86;100.00
39301;BME280;25019;42.626;23.380;2023-12-20T07:29:56;94289.19;;;-3.03;100.00
39301;BME280;25019;42.626;23.380;2023-12-20T07:32:22;94400.78;;;-2.29;100.00
39301;BME280;25019;42.626;23.380;2023-12-20T07:34:48;94385.28;;;-2.22;100.00
39301;BME280;25019;42.626;23.380;2023-12-20T07:37:14;94442.66;;;-2.07;100.00
39301;BME280;25019;42.626;23.380;2023-12-20T07:39:40;94312.06;;;-2.90;100.00
39301;BME280;25019;42.626;23.380;2023-12-20T07:42:07;94408.59;;;-2.29;100.00
39301;BME280;25019;42.626;23.380;2023-12-20T07:44:33;94356.34;;;-2.59;100.00
39301;BME280;25019;42.626;23.380;2023-12-20T07:46:59;94311.41;;;-2.92;100.00
39301;BME280;25019;42.626;23.380;2023-12-20T07:49:26;94377.25;;;-2.44;100.00
39301;BME280;25019;42.626;23.380;2023-12-20T07:51:52;94442.03;;;-2.17;100.00
39301;BME280;25019;42.626;23.380;2023-12-20T07:54:18;94373.50;;;-2.41;100.00
39301;BME280;25019;42.626;23.380;2023-12-20T07:56:43;94324.41;;;-2.84;100.00
39301;BME280;25019;42.626;23.380;2023-12-20T07:59:09;94356.66;;;-2.53;100.00
39301;BME280;25019;42.626;23.380;2023-12-20T08:01:35;94348.56;;;-2.67;100.00
39301;BME280;25019;42.626;23.380;2023-12-20T08:04:00;94263.47;;;-3.29;100.00
39301;BME280;25019;42.626;23.380;2023-12-20T08:06:26;94402.88;;;-2.32;100.00
39301;BME280;25019;42.626;23.380;2023-12-20T08:08:52;94449.06;;;-1.86;100.00
39301;BME280;25019;42.626;23.380;2023-12-20T08:11:17;94383.56;;;-1.98;100.00
39301;BME280;25019;42.626;23.380;2023-12-20T08:13:43;94346.22;;;-2.14;100.00
39301;BME280;25019;42.626;23.380;2023-12-20T08:16:09;94331.59;;;-1.91;100.00
39301;BME280;25019;42.626;23.380;2023-12-20T08:18:35;94368.22;;;-1.93;100.00
39301;BME280;25019;42.626;23.380;2023-12-20T08:21:01;94227.06;;;-2.50;100.00
39301;BME280;25019;42.626;23.380;2023-12-20T08:23:27;94349.97;;;-1.61;100.00
39301;BME280;25019;42.626;23.380;2023-12-20T08:25:53;94311.00;;;-2.01;100.00
39301;BME280;25019;42.626;23.380;2023-12-20T08:28:18;94412.25;;;-1.28;100.00
39301;BME280;25019;42.626;23.380;2023-12-20T08:30:44;94326.72;;;-1.63;100.00
39301;BME280;25019;42.626;23.380;2023-12-20T08:33:10;94319.44;;;-1.68;100.00
39301;BME280;25019;42.626;23.380;2023-12-20T08:35:39;94296.53;;;-1.81;100.00
39301;BME280;25019;42.626;23.380;2023-12-20T08:38:05;94367.59;;;-1.25;100.00
39301;BME280;25019;42.626;23.380;2023-12-20T08:40:31;94276.72;;;-1.82;100.00
39301;BME280;25019;42.626;23.380;2023-12-20T08:42:59;94267.50;;;-1.92;100.00
39301;BME280;25019;42.626;23.380;2023-12-20T08:45:25;94401.09;;;-1.14;100.00
39301;BME280;25019;42.626;23.380;2023-12-20T08:47:51;94341.31;;;-1.54;100.00
39301;BME280;25019;42.626;23.380;2023-12-20T08:50:17;94239.75;;;-2.00;100.00
39301;BME280;25019;42.626;23.380;2023-12-20T08:52:43;94366.13;;;-1.04;100.00
39301;BME280;25019;42.626;23.380;2023-12-20T08:55:09;94361.47;;;-0.94;100.00
39301;BME280;25019;42.626;23.380;2023-12-20T08:57:35;94283.66;;;-1.36;100.00
39301;BME280;25019;42.626;23.380;2023-12-20T09:00:02;94389.72;;;-0.53;100.00
39301;BME280;25019;42.626;23.380;2023-12-20T09:02:28;94289.44;;;-1.25;100.00
39301;BME280;25019;42.626;23.380;2023-12-20T09:04:54;94257.72;;;-1.29;100.00
39301;BME280;25019;42.626;23.380;2023-12-20T09:07:27;94378.88;;;-0.41;100.00
39301;BME280;25019;42.626;23.380;2023-12-20T09:09:56;94224.97;;;-1.46;100.00
39301;BME280;25019;42.626;23.380;2023-12-20T09:12:22;94361.50;;;-0.34;100.00
39301;BME280;25019;42.626;23.380;2023-12-20T09:14:49;94209.81;;;-1.13;100.00
39301;BME280;25019;42.626;23.380;2023-12-20T09:17:15;94313.41;;;-0.25;100.00
39301;BME280;25019;42.626;23.380;2023-12-20T09:19:42;94176.38;;;-1.39;100.00
39301;BME280;25019;42.626;23.380;2023-12-20T09:22:09;94210.41;;;-0.96;100.00
39301;BME280;25019;42.626;23.380;2023-12-20T09:24:35;94253.56;;;-0.63;100.00
39301;BME280;25019;42.626;23.380;2023-12-20T09:27:01;94297.25;;;-0.35;100.00
39301;BME280;25019;42.626;23.380;2023-12-20T09:29:28;94327.19;;;-0.16;100.00
39301;BME280;25019;42.626;23.380;2023-12-20T09:31:54;94219.59;;;-0.85;100.00
39301;BME280;25019;42.626;23.380;2023-12-20T09:34:20;94097.25;;;-1.68;100.00
39301;BME280;25019;42.626;23.380;2023-12-20T09:36:46;94241.88;;;-0.31;100.00
39301;BME280;25019;42.626;23.380;2023-12-20T09:39:17;94295.25;;;0.04;100.00
39301;BME280;25019;42.626;23.380;2023-12-20T09:44:19;94179.91;;;-0.65;100.00
39301;BME280;25019;42.626;23.380;2023-12-20T09:46:49;94163.53;;;-0.59;100.00
39301;BME280;25019;42.626;23.380;2023-12-20T09:49:17;94216.59;;;0.13;100.00
39301;BME280;25019;42.626;23.380;2023-12-20T09:51:46;94241.66;;;0.29;100.00
39301;BME280;25019;42.626;23.380;2023-12-20T09:54:16;94135.06;;;-0.10;100.00
39301;BME280;25019;42.626;23.380;2023-12-20T09:56:42;94154.31;;;0.39;100.00
39301;BME280;25019;42.626;23.380;2023-12-20T09:59:08;94107.50;;;-0.13;100.00
39301;BME280;25019;42.626;23.380;2023-12-20T10:01:35;94124.16;;;0.08;100.00
39301;BME280;25019;42.626;23.380;2023-12-20T10:04:05;94069.25;;;0.01;100.00
39301;BME280;25019;42.626;23.380;2023-12-20T10:06:42;94193.97;;;0.84;100.00
39301;BME280;25019;42.626;23.380;2023-12-20T10:09:11;94119.06;;;0.63;100.00
39301;BME280;25019;42.626;23.380;2023-12-20T10:11:38;94163.41;;;0.50;100.00
39301;BME280;25019;42.626;23.380;2023-12-20T10:14:05;94147.25;;;0.39;100.00
39301;BME280;25019;42.626;23.380;2023-12-20T10:16:32;94103.41;;;-0.01;100.00
39301;BME280;25019;42.626;23.380;2023-12-20T10:18:58;94142.19;;;0.31;100.00
39301;BME280;25019;42.626;23.380;2023-12-20T10:21:25;94109.13;;;0.17;100.00
39301;BME280;25019;42.626;23.380;2023-12-20T10:23:55;94234.16;;;0.77;100.00
39301;BME280;25019;42.626;23.380;2023-12-20T10:26:26;94146.91;;;0.49;100.00
39301;BME280;25019;42.626;23.380;2023-12-20T10:28:56;94154.56;;;0.22;100.00
39301;BME280;25019;42.626;23.380;2023-12-20T10:31:32;94157.94;;;0.16;100.00
39301;BME280;25019;42.626;23.380;2023-12-20T10:34:00;94213.19;;;0.41;100.00
39301;BME280;25019;42.626;23.380;2023-12-20T10:36:27;94101.00;;;-0.24;100.00
39301;BME280;25019;42.626;23.380;2023-12-20T10:38:54;94150.38;;;0.28;100.00
39301;BME280;25019;42.626;23.380;2023-12-20T10:41:26;94197.81;;;0.53;100.00
39301;BME280;25019;42.626;23.380;2023-12-20T10:46:23;93924.00;;;-1.27;100.00
39301;BME280;25019;42.626;23.380;2023-12-20T10:48:53;94112.06;;;0.00;100.00
39301;BME280;25019;42.626;23.380;2023-12-20T10:51:20;94134.81;;;0.41;100.00
39301;BME280;25019;42.626;23.380;2023-12-20T10:53:47;94076.03;;;-0.05;100.00
39301;BME280;25019;42.626;23.380;2023-12-20T10:56:16;94084.78;;;0.09;100.00
39301;BME280;25019;42.626;23.380;2023-12-20T10:58:44;94084.13;;;0.01;100.00
39301;BME280;25019;42.626;23.380;2023-12-20T11:01:15;94092.88;;;0.21;100.00
39301;BME280;25019;42.626;23.380;2023-12-20T11:03:48;93977.56;;;-0.74;100.00
39301;BME280;25019;42.626;23.380;2023-12-20T11:06:33;94152.28;;;0.69;100.00
39301;BME280;25019;42.626;23.380;2023-12-20T11:09:16;94033.19;;;-0.17;100.00
39301;BME280;25019;42.626;23.380;2023-12-20T11:12:23;94041.44;;;-0.13;100.00
39301;BME280;25019;42.626;23.380;2023-12-20T11:14:53;94072.75;;;0.15;100.00
39301;BME280;25019;42.626;23.380;2023-12-20T11:17:22;94072.38;;;0.18;100.00
39301;BME280;25019;42.626;23.380;2023-12-20T11:22:26;94015.56;;;-0.15;100.00
39301;BME280;25019;42.626;23.380;2023-12-20T11:24:52;94005.09;;;-0.15;100.00
39301;BME280;25019;42.626;23.380;2023-12-20T11:27:19;94003.38;;;-0.01;100.00
39301;BME280;25019;42.626;23.380;2023-12-20T11:29:51;93968.50;;;-0.22;100.00
39301;BME280;25019;42.626;23.380;2023-12-20T11:35:00;94019.72;;;0.14;100.00
39301;BME280;25019;42.626;23.380;2023-12-20T11:37:30;94038.25;;;0.20;100.00
39301;BME280;25019;42.626;23.380;2023-12-20T11:40:07;93931.78;;;-0.55;100.00
39301;BME280;25019;42.626;23.380;2023-12-20T11:42:40;94009.97;;;-0.05;100.00
39301;BME280;25019;42.626;23.380;2023-12-20T11:45:16;93917.22;;;-0.71;100.00
39301;BME280;25019;42.626;23.380;2023-12-20T11:47:49;93879.72;;;-0.70;100.00
39301;BME280;25019;42.626;23.380;2023-12-20T11:50:16;93943.78;;;-0.26;100.00
39301;BME280;25019;42.626;23.380;2023-12-20T11:52:42;93938.88;;;-0.07;100.00
39301;BME280;25019;42.626;23.380;2023-12-20T11:55:07;93870.56;;;-0.53;100.00
39301;BME280;25019;42.626;23.380;2023-12-20T11:57:33;93842.16;;;-0.76;100.00
39301;BME280;25019;42.626;23.380;2023-12-20T11:59:59;94061.06;;;0.95;100.00
39301;BME280;25019;42.626;23.380;2023-12-20T12:02:25;93932.41;;;0.37;100.00
39301;BME280;25019;42.626;23.380;2023-12-20T12:04:51;93964.00;;;0.56;100.00
39301;BME280;25019;42.626;23.380;2023-12-20T12:07:17;93854.56;;;0.06;100.00
39301;BME280;25019;42.626;23.380;2023-12-20T12:09:43;94035.38;;;1.32;100.00
39301;BME280;25019;42.626;23.380;2023-12-20T12:12:10;93970.97;;;1.04;100.00
39301;BME280;25019;42.626;23.380;2023-12-20T12:14:37;94027.78;;;1.51;100.00
39301;BME280;25019;42.626;23.380;2023-12-20T12:17:04;93865.09;;;0.46;100.00
39301;BME280;25019;42.626;23.380;2023-12-20T12:19:30;93937.97;;;0.89;100.00
39301;BME280;25019;42.626;23.380;2023-12-20T12:22:07;93803.38;;;0.18;100.00
39301;BME280;25019;42.626;23.380;2023-12-20T12:24:34;93958.72;;;1.31;100.00
39301;BME280;25019;42.626;23.380;2023-12-20T12:27:00;93931.53;;;1.19;100.00
39301;BME280;25019;42.626;23.380;2023-12-20T12:29:26;93972.56;;;1.59;100.00
39301;BME280;25019;42.626;23.380;2023-12-20T12:31:52;93946.03;;;1.55;100.00
39301;BME280;25019;42.626;23.380;2023-12-20T12:34:18;93888.28;;;1.23;100.00
39301;BME280;25019;42.626;23.380;2023-12-20T12:36:44;93870.56;;;1.05;100.00
39301;BME280;25019;42.626;23.380;2023-12-20T12:39:15;93933.91;;;1.61;100.00
39301;BME280;25019;42.626;23.380;2023-12-20T12:41:43;93926.66;;;1.70;100.00
39301;BME280;25019;42.626;23.380;2023-12-20T12:44:09;93695.50;;;0.18;100.00
39301;BME280;25019;42.626;23.380;2023-12-20T12:46:35;93880.41;;;1.37;100.00
39301;BME280;25019;42.626;23.380;2023-12-20T12:49:01;93930.66;;;1.79;100.00